OSOK1: Oswego hwy 160

                                SHEF ID:       OSOK1     Oswego hwy 160
STATION TYPE:

PRECIP STAGE RIV-FLOW VOLTAGE BAT-LOAD
in ft cfs volt volt
Ccp-Rev Ccp-Rev Ccp-Rev Ccp-Rev Ccp-Rev
(America/Chicago)
04/28 00:00 0.00 14.55 5872 12.77 12.50
04/28 01:00 0.00 14.81 6240 12.76 12.49
04/28 02:00 0.00 15.16 6749 12.74 12.47
04/28 03:00 0.00 15.56 7291 12.71 12.46
04/28 04:00 0.00 15.98 7873 12.69 12.43
04/28 05:00 0.00 16.39 8454 12.67 12.40
04/28 06:00 0.00 16.76 8990 12.66 12.40
04/28 07:00 0.00 17.10 9491 12.73 12.42
04/28 08:00 0.00 17.40 9869 13.68 13.19
04/28 09:00 0.00 17.66 10199 14.17 13.39
04/28 10:00 0.00 17.87 10467 14.24 13.31
04/28 11:00 0.00 18.08 10736 13.85 13.30
04/28 12:00 0.32 18.22 10917 13.33 13.10
04/28 13:00 0.15 18.36 11097 13.30 13.07
04/28 14:00 0.51 18.48 11253 13.99 13.11
04/28 15:00 0.01 18.57 11370 13.94 13.19
04/28 16:00 0.00 18.59 11396 13.90 13.19
04/28 17:00 0.00 18.56 11357 13.90 13.18
04/28 18:00 0.00 18.51 11292 13.91 13.16
04/28 19:00 0.00 18.43 11188 13.35 13.11
04/28 20:00 0.00 18.31 11033 13.16 12.94
04/28 21:00 0.00 18.18 10865 12.96 12.72
04/28 22:00 0.00 18.03 10672 12.85 12.60
04/28 23:00 0.00 17.85 10441 12.80 12.53
Data processed at Wed 29Apr2026 04:50 GMT

NOTICE: If you are parsing this page

Please convert to using our Data API. Starting early 2026 we will be migrating to: https://water.usace.army.mil with modern pages rendered in JavaScript. When this migration completes you will no longer be able to scrape this page! CWMSDataAPI (CDA)

Timeseries IDs (TSIDs)

TSIDs used from left to right in the data table
OSWN.Precip-Inc.Total.1Hour.1Hour.Ccp-Rev
OSWN.Stage.Inst.1Hour.0.Ccp-Rev
OSWN.Flow.Inst.1Hour.0.Ccp-Rev
OSWN.Volt-Battery.Inst.1Hour.0.Ccp-Rev
OSWN.Volt-Battery Load.Inst.1Hour.0.Ccp-Rev

                            

All information presented herein is the property of the government of the United States of America and may be revised or deleted at any time without prior notice. Dissemination of this information without the expressed written consent of the Public Affairs Office, Tulsa District U.S. Army Corps of Engineers is strictly prohibited. These data are gathered electronically and, as presented, have NOT undergone any form of quality control. These data are NOT guaranteed to be valid or correct.